Time;durP1;ratioP1;P1;durP2;ratioP2;P2;SDS_P1;SDS_P2;PMS_P1;PMS_P2;Temp;Humidity;BMP_temperature;BMP_pressure;BME280_temperature;BME280_humidity;BME280_pressure;Samples;Min_cycle;Max_cycle;Signal;HPM_P1;HPM_P2
2022/04/22 00:00:37;;;;;;;14.57;8.73;;;;;;;9.22;100.00;92915.78;5030438;28;20049;-85
2022/04/22 00:03:05;;;;;;;18.02;9.55;;;;;;;9.26;100.00;92916.16;5030477;28;20092;-85
2022/04/22 00:05:32;;;;;;;18.17;10.45;;;;;;;8.79;100.00;92833.50;5029976;28;20045;-85
2022/04/22 00:08:00;;;;;;;19.00;9.27;;;;;;;8.76;100.00;92833.13;5029944;28;20037;-85
2022/04/22 00:10:27;;;;;;;17.95;10.30;;;;;;;9.19;100.00;92898.25;5029895;28;20404;-85
2022/04/22 00:12:54;;;;;;;19.30;10.75;;;;;;;8.61;100.00;92798.34;5030436;28;20072;-85
2022/04/22 00:15:21;;;;;;;15.75;10.32;;;;;;;8.69;100.00;92807.56;5030009;28;20132;-85
2022/04/22 00:17:48;;;;;;;16.17;8.57;;;;;;;9.28;100.00;92885.94;5030452;28;20050;-85
2022/04/22 00:20:15;;;;;;;17.45;9.73;;;;;;;9.26;100.00;92898.97;5030263;28;20041;-85
2022/04/22 00:22:43;;;;;;;18.85;9.10;;;;;;;9.06;100.00;92881.97;5030104;28;20042;-86
2022/04/22 00:25:13;;;;;;;13.80;8.00;;;;;;;9.30;100.00;92917.31;5030004;28;20049;-85
2022/04/22 00:27:41;;;;;;;14.60;7.82;;;;;;;9.17;100.00;92900.25;5029738;28;20480;-86
2022/04/22 00:30:09;;;;;;;13.80;7.55;;;;;;;8.69;100.00;92845.97;5029912;28;20038;-85
2022/04/22 00:32:37;;;;;;;12.32;7.32;;;;;;;9.11;100.00;92930.03;5030017;28;20083;-85
2022/04/22 00:35:05;;;;;;;16.95;8.20;;;;;;;9.03;100.00;92920.81;5030047;28;20048;-85
2022/04/22 00:37:32;;;;;;;14.25;8.68;;;;;;;9.09;100.00;92919.22;5029942;28;20045;-85
2022/04/22 00:39:58;;;;;;;12.10;8.43;;;;;;;9.04;100.00;92896.00;5030048;28;20057;-85
2022/04/22 00:42:28;;;;;;;10.50;7.60;;;;;;;9.12;100.00;92918.00;5030028;28;20037;-85
2022/04/22 00:44:56;;;;;;;15.07;9.38;;;;;;;8.86;100.00;92879.56;5030085;28;20057;-85
2022/04/22 00:47:23;;;;;;;13.13;8.35;;;;;;;8.88;100.00;92884.47;5045013;28;20133;-85
2022/04/22 00:49:50;;;;;;;11.43;7.95;;;;;;;8.89;100.00;92894.50;5037780;28;20412;-85
2022/04/22 00:52:19;;;;;;;13.32;8.93;;;;;;;8.81;100.00;92851.97;5030214;28;20049;-85
2022/04/22 00:54:46;;;;;;;15.18;8.25;;;;;;;8.25;100.00;92769.03;5029594;28;20095;-85
2022/04/22 00:57:13;;;;;;;11.38;8.05;;;;;;;8.53;100.00;92824.97;5029582;28;20056;-85
2022/04/22 00:59:42;;;;;;;12.40;8.07;;;;;;;8.83;100.00;92862.03;5029539;28;20037;-85
2022/04/22 01:02:09;;;;;;;14.93;9.07;;;;;;;8.79;100.00;92841.16;5029722;28;20080;-85
2022/04/22 01:10:07;;;;;;;13.13;7.78;;;;;;;8.50;100.00;92765.69;5029797;28;20076;-84
2022/04/22 01:12:35;;;;;;;12.48;6.65;;;;;;;8.54;100.00;92769.44;5029532;28;20041;-85
2022/04/22 01:15:04;;;;;;;9.13;5.43;;;;;;;8.90;100.00;92813.31;5029420;28;20041;-86
2022/04/22 01:17:31;;;;;;;7.97;5.30;;;;;;;8.76;100.00;92789.59;5029481;28;20046;-84
2022/04/22 01:19:58;;;;;;;10.00;5.20;;;;;;;8.79;100.00;92789.16;5029273;28;20095;-85
2022/04/22 01:22:27;;;;;;;7.47;4.30;;;;;;;8.93;100.00;92800.09;5029147;28;20053;-85
2022/04/22 01:24:58;;;;;;;7.15;4.78;;;;;;;8.68;100.00;92765.03;5003024;28;20045;-85
2022/04/22 01:27:29;;;;;;;10.20;4.80;;;;;;;9.00;100.00;92813.66;5028933;28;20519;-85
2022/04/22 01:29:57;;;;;;;9.50;5.47;;;;;;;9.06;100.00;92814.56;5029215;28;20049;-85
2022/04/22 01:32:25;;;;;;;11.10;6.50;;;;;;;9.07;100.00;92821.25;5028990;28;20083;-85
2022/04/22 01:34:52;;;;;;;11.88;7.35;;;;;;;8.65;100.00;92766.22;5028781;28;20046;-85
2022/04/22 01:37:19;;;;;;;10.05;6.18;;;;;;;9.06;100.00;92829.94;5029477;28;20037;-85
2022/04/22 01:39:47;;;;;;;9.55;5.85;;;;;;;8.92;100.00;92803.63;5028702;28;20493;-85
2022/04/22 01:42:14;;;;;;;9.85;6.65;;;;;;;8.94;100.00;92822.94;5030805;28;20045;-85
2022/04/22 01:44:40;;;;;;;12.38;7.60;;;;;;;8.77;100.00;92804.75;5032964;28;20053;-85
2022/04/22 01:47:08;;;;;;;7.05;5.00;;;;;;;8.90;100.00;92829.50;5032848;28;20049;-85
2022/04/22 01:49:35;;;;;;;9.82;6.78;;;;;;;8.55;100.00;92812.78;5032218;28;20053;-85
2022/04/22 01:52:02;;;;;;;8.50;6.05;;;;;;;8.61;100.00;92838.53;5032678;28;20480;-85
2022/04/22 01:54:30;;;;;;;10.40;6.65;;;;;;;8.17;100.00;92777.72;5032946;28;20057;-86
2022/04/22 01:56:59;;;;;;;9.88;6.05;;;;;;;8.62;100.00;92850.34;5032835;28;20095;-85
2022/04/22 01:59:26;;;;;;;5.80;4.18;;;;;;;8.53;100.00;92848.00;5032321;28;20052;-85
2022/04/22 02:01:52;;;;;;;8.93;4.97;;;;;;;8.62;100.00;92868.25;5032487;28;20049;-85
2022/04/22 02:04:20;;;;;;;8.45;4.97;;;;;;;8.65;100.00;92863.50;5032457;28;20053;-85
2022/04/22 02:06:46;;;;;;;11.40;6.60;;;;;;;8.72;100.00;92871.16;5032303;28;20049;-84
2022/04/22 02:09:13;;;;;;;8.95;5.82;;;;;;;8.68;100.00;92867.44;5032466;28;20049;-84
2022/04/22 02:11:41;;;;;;;7.30;5.20;;;;;;;8.78;100.00;92854.97;5032472;28;20058;-84
2022/04/22 02:14:09;;;;;;;7.20;4.63;;;;;;;8.46;100.00;92810.63;5032306;28;20048;-84
2022/04/22 02:16:36;;;;;;;11.07;7.00;;;;;;;8.47;100.00;92801.97;5032374;28;20060;-83
2022/04/22 02:19:04;;;;;;;9.65;4.45;;;;;;;8.20;100.00;92759.38;5032386;28;20053;-87
2022/04/22 02:21:31;;;;;;;8.32;4.50;;;;;;;8.13;100.00;92749.22;5032233;28;20045;-86
2022/04/22 02:23:57;;;;;;;7.72;4.70;;;;;;;8.42;100.00;92782.88;5031955;28;20053;-87
2022/04/22 02:26:25;;;;;;;6.82;4.30;;;;;;;8.38;100.00;92771.50;5031968;28;20397;-87
2022/04/22 02:28:51;;;;;;;5.70;4.00;;;;;;;8.54;100.00;92790.72;5031669;28;20053;-87
2022/04/22 02:31:19;;;;;;;;;;;;;;;8.52;100.00;92791.94;5032452;28;20073;-85
2022/04/22 02:33:46;;;;;;;11.35;5.43;;;;;;;8.39;100.00;92779.97;5031835;28;20276;-85
2022/04/22 02:36:15;;;;;;;8.15;4.40;;;;;;;8.35;100.00;92776.25;5031891;28;20403;-84
2022/04/22 02:38:42;;;;;;;9.07;4.78;;;;;;;8.42;100.00;92790.56;5031774;28;20037;-84
2022/04/22 02:46:39;;;;;;;7.47;5.68;;;;;;;8.21;100.00;92786.56;5031533;28;20051;-86
2022/04/22 02:49:06;;;;;;;8.15;6.25;;;;;;;7.96;100.00;92745.56;5031814;28;20060;-87
2022/04/22 02:51:33;;;;;;;11.32;7.20;;;;;;;7.82;100.00;92730.28;5031496;28;20049;-87
2022/04/22 02:54:00;;;;;;;8.45;5.82;;;;;;;8.20;100.00;92799.56;5032007;28;20057;-87
2022/04/22 02:56:27;;;;;;;11.80;6.00;;;;;;;7.89;100.00;92758.38;5032206;28;20388;-86
2022/04/22 02:58:56;;;;;;;8.57;5.18;;;;;;;8.10;100.00;92792.31;5032027;28;20060;-85
2022/04/22 03:01:23;;;;;;;9.40;5.40;;;;;;;8.29;100.00;92811.13;5032273;28;20053;-85
2022/04/22 03:03:51;;;;;;;9.93;5.65;;;;;;;8.27;100.00;92806.22;5031360;28;20400;-85
2022/04/22 03:06:19;;;;;;;12.48;6.22;;;;;;;8.31;100.00;92805.78;5031665;28;20065;-82
2022/04/22 03:08:45;;;;;;;8.25;5.70;;;;;;;8.26;100.00;92822.56;5031442;28;20128;-83
2022/04/22 03:11:20;;;;;;;9.93;4.80;;;;;;;8.35;100.00;92828.22;5031217;28;20041;-83
2022/04/22 03:13:47;;;;;;;10.40;5.00;;;;;;;8.25;100.00;92804.84;5031411;28;20041;-85
2022/04/22 03:16:14;;;;;;;11.52;5.47;;;;;;;7.81;100.00;92727.91;5031722;28;20064;-86
2022/04/22 03:18:41;;;;;;;8.45;4.78;;;;;;;8.23;100.00;92784.56;5031426;28;20042;-84
2022/04/22 03:21:09;;;;;;;8.38;4.35;;;;;;;8.32;100.00;92803.03;5030949;28;20085;-85
2022/04/22 03:23:36;;;;;;;9.48;4.80;;;;;;;8.54;100.00;92823.22;5031627;28;20374;-85
2022/04/22 03:26:03;;;;;;;12.02;6.30;;;;;;;8.62;100.00;92827.31;5031188;28;20045;-84
2022/04/22 03:28:30;;;;;;;14.60;8.18;;;;;;;8.34;100.00;92811.28;5031214;28;20049;-84
2022/04/22 03:30:56;;;;;;;11.23;7.55;;;;;;;8.37;100.00;92845.91;5031055;28;20050;-85
2022/04/22 03:33:23;;;;;;;11.07;7.07;;;;;;;8.18;100.00;92838.13;5031250;28;20045;-84
2022/04/22 03:35:51;;;;;;;10.25;5.65;;;;;;;8.31;100.00;92860.31;5030773;28;20049;-84
2022/04/22 03:38:20;;;;;;;12.10;6.63;;;;;;;7.89;100.00;92812.06;5031253;28;20042;-84
2022/04/22 03:40:47;;;;;;;11.52;6.00;;;;;;;8.18;100.00;92861.16;5030763;28;20081;-83
2022/04/22 03:43:14;;;;;;;10.82;6.47;;;;;;;8.18;100.00;92860.38;5031342;28;20041;-83
2022/04/22 03:45:41;;;;;;;10.98;6.93;;;;;;;8.12;100.00;92849.19;5030528;28;20061;-83
2022/04/22 03:48:08;;;;;;;10.93;6.43;;;;;;;8.16;100.00;92850.34;5035526;28;20052;-82
2022/04/22 03:50:36;;;;;;;12.48;7.68;;;;;;;8.17;100.00;92851.91;5047024;28;20041;-86
2022/04/22 03:53:03;;;;;;;14.63;7.43;;;;;;;7.89;100.00;92799.28;5031010;28;20045;-86
2022/04/22 03:55:32;;;;;;;8.68;6.35;;;;;;;8.24;100.00;92847.53;5030806;28;20044;-85
2022/04/22 03:58:13;;;;;;;10.15;6.57;;;;;;;8.15;100.00;92811.19;5030616;28;20042;-84
2022/04/22 04:00:41;;;;;;;12.77;5.78;;;;;;;8.25;100.00;92815.84;5030617;28;20045;-84
2022/04/22 04:03:09;;;;;;;11.75;5.63;;;;;;;7.96;100.00;92766.78;5030007;28;20476;-85
2022/04/22 04:05:37;;;;;;;9.07;5.15;;;;;;;7.91;100.00;92760.72;5029954;28;20049;-84
2022/04/22 04:08:04;;;;;;;9.95;5.60;;;;;;;8.31;100.00;92814.25;5030457;28;20112;-84
2022/04/22 04:16:01;;;;;;;16.30;9.10;;;;;;;8.05;100.00;92758.91;5029873;28;20060;-86
2022/04/22 04:18:30;;;;;;;14.90;8.30;;;;;;;8.14;100.00;92747.41;5030200;28;20393;-87
2022/04/22 04:23:42;;;;;;;8.95;5.68;;;;;;;8.19;100.00;92757.06;5029979;28;20052;-84
2022/04/22 04:26:11;;;;;;;10.43;6.13;;;;;;;8.35;100.00;92774.47;5030097;28;20050;-83
2022/04/22 04:28:39;;;;;;;10.90;6.60;;;;;;;8.58;100.00;92797.97;5030005;28;20392;-83
2022/04/22 04:31:07;;;;;;;13.13;6.90;;;;;;;8.19;100.00;92757.81;5029984;28;20053;-84
2022/04/22 04:33:36;;;;;;;10.88;6.25;;;;;;;8.57;100.00;92811.78;5029906;28;20045;-84
2022/04/22 04:36:04;;;;;;;12.82;6.90;;;;;;;8.16;100.00;92769.25;5030373;28;20129;-86
2022/04/22 04:38:31;;;;;;;15.38;7.40;;;;;;;8.00;100.00;92746.69;5029697;28;20051;-86
2022/04/22 04:40:59;;;;;;;13.60;7.28;;;;;;;8.35;100.00;92802.63;5030023;28;20095;-86
2022/04/22 04:43:27;;;;;;;20.95;11.95;;;;;;;8.37;100.00;92808.31;5029424;28;20560;-86
2022/04/22 04:45:54;;;;;;;19.95;10.52;;;;;;;8.54;100.00;92807.84;5029754;28;20057;-86
2022/04/22 04:48:22;;;;;;;12.60;7.22;;;;;;;8.59;100.00;92818.25;5030205;28;20045;-84
2022/04/22 04:50:51;;;;;;;21.10;11.68;;;;;;;8.50;100.00;92804.91;5029624;28;20060;-84
2022/04/22 04:53:19;;;;;;;16.25;9.07;;;;;;;8.43;100.00;92781.88;5029354;28;20485;-84
2022/04/22 04:55:47;;;;;;;10.23;7.53;;;;;;;8.43;100.00;92770.88;5029036;28;20061;-84
2022/04/22 04:58:13;;;;;;;11.55;7.75;;;;;;;8.46;100.00;92767.13;5029492;28;20045;-84
2022/04/22 05:00:42;;;;;;;11.15;8.10;;;;;;;8.33;100.00;92740.59;5029352;28;20052;-84
2022/04/22 05:03:08;;;;;;;16.30;9.48;;;;;;;8.63;100.00;92780.22;5029514;28;20061;-84
2022/04/22 05:05:35;;;;;;;15.20;8.93;;;;;;;8.68;100.00;92772.69;5029619;28;20053;-84
2022/04/22 05:08:02;;;;;;;20.33;10.85;;;;;;;8.51;100.00;92769.81;5029515;28;20037;-84
2022/04/22 05:10:31;;;;;;;13.50;8.32;;;;;;;8.00;100.00;92696.34;5029510;28;20660;-84
2022/04/22 05:12:59;;;;;;;19.15;9.95;;;;;;;7.93;100.00;92682.81;5029210;28;20046;-87
2022/04/22 05:15:27;;;;;;;19.90;10.93;;;;;;;8.13;100.00;92694.69;5029991;28;20045;-88
2022/04/22 05:17:56;;;;;;;21.35;13.43;;;;;;;8.27;100.00;92703.06;5032902;28;20042;-88
2022/04/22 05:20:25;;;;;;;14.25;10.25;;;;;;;8.53;100.00;92704.66;5033604;28;20045;-87
2022/04/22 05:22:56;;;;;;;20.45;11.15;;;;;;;8.75;100.00;92722.22;5033113;28;20493;-88
2022/04/22 05:25:24;;;;;;;17.98;12.00;;;;;;;8.81;100.00;92705.25;5033226;28;20046;-89
2022/04/22 05:27:51;;;;;;;14.90;7.80;;;;;;;8.34;100.00;92626.25;5033473;28;20045;-88
2022/04/22 05:33:04;;;;;;;14.45;8.88;;;;;;;8.05;100.00;92602.88;5033077;28;20099;-86
2022/04/22 05:35:31;;;;;;;16.48;9.80;;;;;;;7.94;100.00;92592.31;5033001;28;20037;-86
2022/04/22 05:37:59;;;;;;;21.13;12.75;;;;;;;7.93;100.00;92592.53;5033038;28;20054;-87
2022/04/22 05:40:28;;;;;;;16.50;11.13;;;;;;;8.17;100.00;92611.44;5033735;28;20050;-86
2022/04/22 05:42:55;;;;;;;16.27;9.82;;;;;;;7.73;100.00;92552.56;5033708;28;20144;-86
2022/04/22 05:45:24;;;;;;;12.75;9.07;;;;;;;8.36;100.00;92627.59;5033742;28;20491;-86
2022/04/22 05:47:52;;;;;;;15.57;9.50;;;;;;;8.14;100.00;92579.38;5033532;28;20049;-86
2022/04/22 05:50:21;;;;;;;15.27;9.75;;;;;;;8.65;100.00;92627.97;5033648;28;20454;-85
2022/04/22 05:52:49;;;;;;;16.33;11.27;;;;;;;8.41;100.00;92570.66;5033850;28;20403;-85
2022/04/22 05:55:17;;;;;;;21.38;12.95;;;;;;;9.03;100.00;92635.66;5033291;28;20060;-85
2022/04/22 05:57:46;;;;;;;16.40;11.50;;;;;;;8.65;100.00;92587.00;5032866;28;20048;-86
2022/04/22 06:00:18;;;;;;;19.17;12.20;;;;;;;9.13;100.00;92640.28;5033412;28;20050;-89
2022/04/22 06:02:49;;;;;;;25.73;18.70;;;;;;;8.71;100.00;92564.09;5033149;28;20392;-87
2022/04/22 06:05:20;;;;;;;24.75;16.63;;;;;;;9.03;100.00;92604.94;5030334;28;20111;-85
2022/04/22 06:10:31;;;;;;;22.98;14.25;;;;;;;9.35;100.00;92625.22;5030916;28;20060;-85
2022/04/22 06:10:36;;;;;;;16.52;12.20;;;;;;;9.44;100.00;92643.69;5032763;28;20053;-85
2022/04/22 06:13:03;;;;;;;19.17;13.50;;;;;;;9.16;100.00;92643.19;5032691;28;20085;-84
2022/04/22 06:15:31;;;;;;;16.98;13.10;;;;;;;9.28;100.00;92639.91;5032744;28;20481;-83
2022/04/22 06:18:04;;;;;;;18.55;10.60;;;;;;;9.16;100.00;92624.50;5032857;28;20045;-83
2022/04/22 06:20:31;;;;;;;14.57;9.30;;;;;;;9.20;100.00;92598.22;5033120;28;20053;-84
2022/04/22 06:23:00;;;;;;;14.75;10.18;;;;;;;9.16;100.00;92615.00;5032821;28;20041;-84
2022/04/22 06:25:28;;;;;;;18.48;11.82;;;;;;;9.56;100.00;92610.38;5032633;28;20076;-84
2022/04/22 06:28:13;;;;;;;20.67;11.45;;;;;;;9.51;100.00;92575.16;5032271;28;20438;-84
2022/04/22 06:30:40;;;;;;;21.83;10.02;;;;;;;10.16;100.00;92622.38;5033785;28;20053;-84
2022/04/22 06:33:08;;;;;;;21.10;10.05;;;;;;;10.18;100.00;92593.91;5032567;28;20135;-84
2022/04/22 06:35:36;;;;;;;18.00;10.57;;;;;;;10.54;100.00;92643.53;5032656;28;20398;-85
2022/04/22 06:38:09;;;;;;;19.60;10.50;;;;;;;10.21;100.00;92536.19;5032622;28;20044;-84
2022/04/22 06:46:05;;;;;;;18.48;9.05;;;;;;;11.70;100.00;92598.44;5032711;28;20095;-86
2022/04/22 06:48:34;;;;;;;15.00;6.97;;;;;;;12.12;100.00;92594.75;5040463;28;20046;-85
2022/04/22 06:51:06;;;;;;;18.13;7.28;;;;;;;12.51;100.00;92606.91;5047729;28;20041;-86
2022/04/22 06:53:35;;;;;;;15.55;7.57;;;;;;;12.45;100.00;92615.59;5031454;28;20508;-85
2022/04/22 06:56:04;;;;;;;13.77;7.05;;;;;;;12.50;100.00;92603.56;5031424;28;20046;-84
2022/04/22 06:58:32;;;;;;;15.73;7.72;;;;;;;12.75;100.00;92586.09;5031283;28;20049;-84
2022/04/22 07:01:00;;;;;;;19.48;8.50;;;;;;;12.97;100.00;92622.22;5031449;28;20465;-83
2022/04/22 07:03:27;;;;;;;24.55;8.13;;;;;;;13.08;100.00;92630.84;5031432;28;20046;-85
2022/04/22 07:05:54;;;;;;;15.75;7.72;;;;;;;13.04;100.00;92593.66;5031580;28;20481;-85
2022/04/22 07:08:22;;;;;;;15.18;6.82;;;;;;;12.69;100.00;92544.03;5031287;28;20049;-85
2022/04/22 07:10:52;;;;;;;12.30;7.22;;;;;;;13.60;100.00;92626.28;5031452;28;20041;-85
2022/04/22 07:13:20;;;;;;;19.33;8.20;;;;;;;14.00;100.00;92619.97;5031359;28;20432;-85
2022/04/22 07:15:49;;;;;;;17.30;8.30;;;;;;;14.48;100.00;92616.72;5031088;28;20045;-83
2022/04/22 07:18:17;;;;;;;25.38;8.98;;;;;;;14.78;100.00;92607.66;5031526;28;20041;-85
2022/04/22 07:20:44;;;;;;;21.63;9.35;;;;;;;15.25;100.00;92633.72;5031530;28;20056;-87
2022/04/22 07:23:13;;;;;;;17.48;7.97;;;;;;;15.58;100.00;92636.94;5031674;28;20075;-86
2022/04/22 07:25:43;;;;;;;16.27;7.80;;;;;;;15.86;100.00;92628.97;5031594;28;20041;-85
2022/04/22 07:28:12;;;;;;;15.82;5.95;;;;;;;16.22;97.30;92642.00;5031727;28;20103;-84
2022/04/22 07:30:45;;;;;;;11.48;5.90;;;;;;;16.46;95.14;92641.47;5031665;28;20049;-85
2022/04/22 07:33:13;;;;;;;6.07;3.30;;;;;;;16.44;90.16;92648.75;5031025;28;20045;-85
2022/04/22 07:35:40;;;;;;;7.90;4.50;;;;;;;16.12;90.82;92601.28;5030602;28;20052;-85
2022/04/22 07:38:10;;;;;;;8.25;4.28;;;;;;;16.15;89.56;92600.78;5030544;28;20037;-87
2022/04/22 07:40:40;;;;;;;8.82;3.83;;;;;;;16.17;90.73;92585.75;5030072;28;20037;-86
2022/04/22 07:48:38;;;;;;;6.00;3.05;;;;;;;17.16;86.86;92653.06;5030393;28;20103;-88
2022/04/22 07:51:04;;;;;;;5.65;3.38;;;;;;;17.14;84.67;92662.94;5030342;28;20060;-88
2022/04/22 07:53:32;;;;;;;6.07;2.58;;;;;;;16.93;83.70;92647.38;5030400;28;20473;-88
2022/04/22 07:55:59;;;;;;;5.45;2.58;;;;;;;17.13;85.00;92665.78;5030966;28;20103;-88
2022/04/22 07:58:27;;;;;;;9.00;2.47;;;;;;;17.21;86.59;92665.25;5030821;28;20056;-88
2022/04/22 08:00:55;;;;;;;7.75;2.78;;;;;;;17.25;85.05;92660.31;5030242;28;20046;-88
2022/04/22 08:03:22;;;;;;;6.75;2.17;;;;;;;16.85;84.42;92610.84;5030231;28;20493;-87
2022/04/22 08:05:49;;;;;;;6.15;2.47;;;;;;;17.01;85.05;92607.16;5030398;28;20060;-87
2022/04/22 08:08:16;;;;;;;4.45;2.20;;;;;;;16.95;82.05;92636.75;5030381;28;20172;-86
2022/04/22 08:10:44;;;;;;;5.90;2.30;;;;;;;17.06;83.79;92632.34;5030483;28;20049;-88
2022/04/22 08:13:11;;;;;;;5.03;1.75;;;;;;;16.67;85.15;92567.03;5030112;28;20049;-86
2022/04/22 08:15:38;;;;;;;9.38;2.00;;;;;;;17.01;84.03;92614.16;5029765;28;20041;-88
2022/04/22 08:18:07;;;;;;;5.03;2.10;;;;;;;17.12;84.75;92625.31;5029952;28;20072;-87
2022/04/22 08:20:35;;;;;;;7.05;2.03;;;;;;;17.21;85.41;92634.09;5029835;28;20045;-89
2022/04/22 08:23:02;;;;;;;4.20;2.22;;;;;;;17.11;86.26;92608.22;5030151;28;20056;-89
2022/04/22 08:25:29;;;;;;;5.85;2.83;;;;;;;17.35;84.68;92631.72;5029979;28;20045;-89
2022/04/22 08:27:56;;;;;;;6.28;2.20;;;;;;;17.10;84.18;92547.75;5030442;28;20140;-89
2022/04/22 08:30:23;;;;;;;6.93;2.90;;;;;;;17.55;83.78;92604.88;5030672;28;20098;-89
2022/04/22 08:32:50;;;;;;;6.57;2.22;;;;;;;17.46;81.25;92580.53;5030446;28;20050;-89
2022/04/22 08:35:19;;;;;;;5.28;2.47;;;;;;;17.75;83.07;92609.22;5031001;28;20049;-89
2022/04/22 08:37:49;;;;;;;6.78;2.25;;;;;;;17.88;81.60;92600.00;5030228;28;20423;-90
2022/04/22 08:40:17;;;;;;;6.20;2.28;;;;;;;17.15;80.88;92482.84;5029439;28;20042;-91
2022/04/22 08:42:46;;;;;;;5.25;2.17;;;;;;;17.56;80.74;92530.38;5030091;28;20049;-90
2022/04/22 08:45:13;;;;;;;4.28;2.08;;;;;;;17.33;78.80;92517.78;5029948;28;20041;-87
2022/04/22 08:50:30;;;;;;;4.97;2.90;;;;;;;17.63;78.81;92565.38;5029402;28;20053;-88
2022/04/22 08:53:03;;;;;;;7.32;2.97;;;;;;;17.43;79.60;92535.13;5029659;28;20049;-88
2022/04/22 08:55:40;;;;;;;6.60;3.20;;;;;;;17.30;80.09;92530.50;5029178;28;20073;-88
2022/04/22 08:58:07;;;;;;;7.50;2.60;;;;;;;17.35;80.65;92559.81;5029725;28;20045;-87
2022/04/22 09:00:36;;;;;;;9.63;2.88;;;;;;;17.20;81.91;92557.28;5029833;28;20049;-87
2022/04/22 09:03:03;;;;;;;6.40;3.35;;;;;;;16.74;82.30;92501.16;5029347;28;20041;-87
2022/04/22 09:05:34;;;;;;;5.78;3.83;;;;;;;16.78;81.08;92508.16;5029680;28;20045;-87
2022/04/22 09:08:02;;;;;;;7.95;3.35;;;;;;;16.65;81.46;92517.25;5029689;28;20045;-88
2022/04/22 09:10:29;;;;;;;9.43;3.40;;;;;;;16.63;81.31;92521.16;5029903;28;20046;-87
2022/04/22 09:13:09;;;;;;;6.28;3.33;;;;;;;16.65;80.16;92519.06;5029758;28;20053;-86
2022/04/22 09:15:38;;;;;;;4.88;2.80;;;;;;;17.18;80.83;92569.75;5028016;28;20046;-86
2022/04/22 09:18:12;;;;;;;5.68;2.92;;;;;;;16.99;80.50;92531.41;5029444;28;20046;-86
2022/04/22 09:20:40;;;;;;;8.77;2.50;;;;;;;17.21;80.82;92551.06;5026637;28;20049;-86
2022/04/22 09:23:24;;;;;;;4.95;2.50;;;;;;;17.29;80.32;92539.34;5028771;28;20056;-87
2022/04/22 09:25:51;;;;;;;4.45;2.70;;;;;;;17.47;79.62;92554.31;5022483;28;20169;-86
2022/04/22 09:28:18;;;;;;;5.68;3.17;;;;;;;17.65;79.55;92566.91;5028810;28;20435;-86
2022/04/22 09:30:55;;;;;;;4.13;2.38;;;;;;;17.60;79.17;92518.41;5028711;28;20045;-85
2022/04/22 09:33:22;;;;;;;6.18;2.75;;;;;;;17.79;79.03;92552.28;5029067;28;20046;-87
2022/04/22 09:44:24;;;;;;;5.13;2.38;;;;;;;18.36;77.71;92509.47;5038623;28;20056;-86
2022/04/22 09:47:11;;;;;;;7.50;3.33;;;;;;;18.61;75.49;92516.25;5029426;28;20080;-86
2022/04/22 09:49:43;;;;;;;6.43;2.28;;;;;;;18.58;72.65;92506.41;5029320;28;20485;-87
2022/04/22 09:52:11;;;;;;;8.50;2.40;;;;;;;18.49;70.73;92488.03;5029320;28;20492;-87
2022/04/22 09:54:39;;;;;;;4.95;1.90;;;;;;;18.67;71.06;92506.56;5028662;28;20052;-86
2022/04/22 09:57:06;;;;;;;6.30;2.50;;;;;;;18.82;71.66;92506.41;5028489;28;20045;-87
2022/04/22 09:59:35;;;;;;;6.85;3.00;;;;;;;18.49;69.62;92436.03;5028508;28;20493;-87
2022/04/22 10:02:02;;;;;;;4.13;2.40;;;;;;;18.74;69.72;92443.81;5028705;28;20045;-85
2022/04/22 10:04:31;;;;;;;4.30;2.35;;;;;;;19.07;66.77;92485.59;5032337;28;20053;-86
2022/04/22 10:07:02;;;;;;;6.63;2.42;;;;;;;19.12;67.17;92495.16;5032224;28;20056;-87
2022/04/22 10:09:33;;;;;;;5.72;2.20;;;;;;;19.24;67.88;92482.50;5032649;28;20072;-87
2022/04/22 10:12:01;;;;;;;6.30;2.47;;;;;;;19.36;67.37;92484.69;5032094;28;20041;-87
2022/04/22 10:14:36;;;;;;;9.38;2.70;;;;;;;19.38;67.38;92482.56;5032394;28;20444;-85
2022/04/22 10:17:05;;;;;;;5.25;2.53;;;;;;;19.50;66.37;92471.72;5032415;28;20041;-86
2022/04/22 10:19:34;;;;;;;7.22;2.40;;;;;;;19.60;65.98;92487.19;5032402;28;20115;-85
2022/04/22 10:22:01;;;;;;;7.15;2.53;;;;;;;19.46;65.98;92457.72;5032427;28;20048;-86
2022/04/22 10:24:31;;;;;;;4.38;2.47;;;;;;;19.57;65.31;92453.09;5031838;28;20117;-85
2022/04/22 10:27:00;;;;;;;8.73;3.20;;;;;;;19.79;65.88;92460.34;5032161;28;20064;-85
2022/04/22 10:29:29;;;;;;;8.43;2.25;;;;;;;19.92;64.39;92460.66;5031614;28;20096;-87
2022/04/22 10:31:57;;;;;;;7.57;2.28;;;;;;;20.06;62.68;92464.09;5031790;28;20450;-86
2022/04/22 10:34:38;;;;;;;5.50;2.08;;;;;;;20.02;63.57;92437.06;5031727;28;20099;-86
2022/04/22 10:37:05;;;;;;;4.20;2.03;;;;;;;20.26;61.92;92462.97;5012074;28;20050;-86
2022/04/22 10:39:36;;;;;;;7.43;2.10;;;;;;;20.51;59.39;92473.22;5011905;28;20077;-85
2022/04/22 10:42:14;;;;;;;5.65;1.58;;;;;;;20.37;57.99;92453.09;5011707;28;20046;-86
2022/04/22 10:47:39;;;;;;;6.60;2.70;;;;;;;20.62;56.44;92456.31;5030659;28;20535;-85
2022/04/22 10:50:39;;;;;;;4.72;1.98;;;;;;;20.43;57.41;92440.75;5029878;28;20048;-86
2022/04/22 10:53:08;;;;;;;17.92;8.88;;;;;;;20.77;58.57;92478.72;5031613;28;20475;-86
2022/04/22 10:55:36;;;;;;;4.38;2.50;;;;;;;20.73;58.05;92482.22;5031517;28;20057;-85
2022/04/22 10:58:24;;;;;;;5.32;2.83;;;;;;;20.93;58.08;92475.84;5031790;28;20396;-86
2022/04/22 11:00:54;;;;;;;4.65;2.30;;;;;;;20.64;56.57;92443.72;5031632;28;20050;-85
2022/04/22 11:03:22;;;;;;;9.13;4.70;;;;;;;20.78;57.43;92459.38;5031647;28;20420;-86
2022/04/22 11:06:00;;;;;;;8.75;4.53;;;;;;;20.15;55.49;92371.09;5018429;28;20054;-85
2022/04/22 11:08:32;;;;;;;14.98;6.80;;;;;;;20.68;54.76;92441.31;5011558;28;20077;-88
2022/04/22 11:11:15;;;;;;;33.08;21.02;;;;;;;20.59;55.19;92438.63;5011673;28;20038;-85
2022/04/22 11:13:49;;;;;;;8.30;4.95;;;;;;;20.76;54.70;92455.50;5010938;28;20045;-87
2022/04/22 11:16:24;;;;;;;9.32;4.80;;;;;;;20.56;54.75;92439.22;5011413;28;20092;-87
2022/04/22 11:19:25;;;;;;;15.60;10.82;;;;;;;20.05;52.65;92394.00;5011576;28;20392;-86
2022/04/22 11:21:55;;;;;;;9.05;4.50;;;;;;;19.94;53.09;92409.78;5000950;28;20045;-85
2022/04/22 11:24:24;;;;;;;6.18;3.53;;;;;;;20.04;53.71;92424.50;5011998;28;20136;-86
2022/04/22 11:26:52;;;;;;;8.57;3.20;;;;;;;19.92;52.87;92452.81;5011837;28;20046;-86
2022/04/22 11:29:20;;;;;;;8.95;4.82;;;;;;;19.69;54.62;92435.22;5011861;28;20044;-86
2022/04/22 11:31:58;;;;;;;14.15;12.55;;;;;;;19.61;54.32;92417.63;5011676;28;20041;-87
2022/04/22 11:35:14;;;;;;;14.50;13.18;;;;;;;19.67;54.31;92416.47;5010971;28;20464;-85
2022/04/22 11:37:42;;;;;;;10.32;7.20;;;;;;;19.79;54.64;92407.44;4930992;29;20047;-85
2022/04/22 11:40:10;;;;;;;7.65;3.50;;;;;;;19.88;54.47;92401.28;4930998;29;20044;-85
2022/04/22 11:42:44;;;;;;;38.92;17.25;;;;;;;20.03;54.97;92392.47;4958951;28;20093;-86
2022/04/22 11:45:14;;;;;;;16.70;7.93;;;;;;;20.34;54.54;92411.97;4991774;28;20050;-86
2022/04/22 11:47:42;;;;;;;6.82;3.13;;;;;;;20.28;54.29;92405.31;4991361;28;20056;-86
2022/04/22 11:50:10;;;;;;;37.88;13.10;;;;;;;20.38;53.26;92375.66;4991185;28;20046;-85
2022/04/22 11:52:37;;;;;;;33.03;12.38;;;;;;;20.59;53.05;92376.00;4991357;28;20133;-86
2022/04/22 11:55:06;;;;;;;24.95;10.15;;;;;;;20.77;52.87;92390.00;4990629;28;20061;-84
2022/04/22 11:57:37;;;;;;;48.60;20.80;;;;;;;21.11;52.18;92390.63;4995147;28;20042;-85
2022/04/22 12:05:43;;;;;;;24.35;9.30;;;;;;;21.22;48.84;92394.53;5010324;28;20147;-85
2022/04/22 12:08:13;;;;;;;19.83;9.52;;;;;;;21.11;46.24;92395.06;5010253;28;20064;-83
2022/04/22 12:10:48;;;;;;;18.98;9.00;;;;;;;20.84;47.79;92371.31;5010190;28;20469;-85
2022/04/22 12:13:16;;;;;;;21.85;8.35;;;;;;;21.03;48.11;92368.59;5010435;28;20054;-85
2022/04/22 12:15:48;;;;;;;15.57;7.22;;;;;;;21.07;47.60;92369.53;4993476;28;20148;-85
2022/04/22 12:18:30;;;;;;;7.93;4.63;;;;;;;21.12;47.58;92368.66;5009658;28;20051;-85
2022/04/22 12:20:58;;;;;;;20.15;8.73;;;;;;;21.29;47.81;92367.25;5010239;28;20050;-84
2022/04/22 12:23:33;;;;;;;13.70;6.13;;;;;;;21.33;47.36;92339.44;5010366;28;20134;-85
2022/04/22 12:26:00;;;;;;;14.13;3.10;;;;;;;21.30;46.60;92346.03;5010740;28;20042;-85
2022/04/22 12:28:29;;;;;;;10.30;2.97;;;;;;;21.23;46.86;92340.44;5010154;28;20076;-85